createdAt,value
2017-10-21T00:01:10.904Z,0.00
2017-10-21T00:02:10.964Z,0.00
2017-10-21T00:04:03.973Z,0.00
2017-10-21T00:05:04.011Z,0.00
2017-10-21T00:06:56.995Z,0.00
2017-10-21T00:07:57.058Z,0.00
2017-10-21T00:09:50.060Z,0.00
2017-10-21T00:10:50.103Z,0.00
2017-10-21T00:12:43.107Z,0.00
2017-10-21T00:13:43.147Z,0.00
2017-10-21T00:15:36.140Z,0.00
2017-10-21T00:16:36.193Z,0.00
2017-10-21T00:18:29.199Z,0.00
2017-10-21T00:19:29.241Z,0.00
2017-10-21T00:21:22.223Z,0.00
2017-10-21T00:22:22.286Z,0.00
2017-10-21T00:24:15.330Z,0.00
2017-10-21T00:25:15.332Z,0.00
2017-10-21T00:27:08.319Z,0.00
2017-10-21T00:28:08.377Z,0.00
2017-10-21T00:30:01.384Z,0.00
2017-10-21T00:31:01.427Z,0.00
2017-10-21T00:32:54.427Z,0.00
2017-10-21T00:33:54.467Z,0.00
2017-10-21T00:35:47.457Z,0.00
2017-10-21T00:36:47.515Z,0.00
2017-10-21T00:38:40.523Z,0.00
2017-10-21T00:39:40.563Z,0.00
2017-10-21T00:41:33.552Z,0.00
2017-10-21T00:42:33.610Z,0.00
2017-10-21T00:44:26.615Z,0.00
2017-10-21T00:45:26.656Z,0.00
2017-10-21T00:47:19.647Z,0.00
2017-10-21T00:48:19.708Z,0.00
2017-10-21T00:50:12.711Z,0.00
2017-10-21T00:51:12.752Z,0.00
2017-10-21T00:53:06.264Z,0.00
2017-10-21T00:54:06.305Z,0.00
2017-10-21T00:55:59.289Z,0.00
2017-10-21T00:56:59.350Z,0.00
2017-10-21T00:58:52.355Z,0.00
2017-10-21T00:59:52.397Z,0.00
2017-10-21T01:01:45.385Z,0.00
2017-10-21T01:02:45.442Z,0.00
2017-10-21T01:04:38.445Z,0.00
2017-10-21T01:05:38.769Z,0.00
2017-10-21T01:07:31.470Z,0.00
2017-10-21T01:08:31.532Z,0.00
2017-10-21T01:10:24.539Z,0.00
2017-10-21T01:11:24.581Z,0.00
2017-10-21T01:13:17.586Z,0.00
2017-10-21T01:14:17.628Z,0.00
2017-10-21T01:16:10.617Z,0.00
2017-10-21T01:17:10.674Z,0.00
2017-10-21T01:19:03.679Z,0.00
2017-10-21T01:20:03.721Z,0.00
2017-10-21T01:21:56.710Z,0.00
2017-10-21T01:22:56.766Z,0.00
2017-10-21T01:24:49.773Z,0.00
2017-10-21T01:25:49.811Z,0.00
2017-10-21T01:27:42.793Z,0.00
2017-10-21T01:28:42.856Z,0.00
2017-10-21T01:30:35.859Z,0.00
2017-10-21T01:31:35.900Z,0.00
2017-10-21T01:33:28.905Z,0.00
2017-10-21T01:34:28.944Z,0.00
2017-10-21T01:36:21.934Z,0.00
2017-10-21T01:37:21.991Z,0.00
2017-10-21T01:39:14.997Z,0.00
2017-10-21T01:40:15.036Z,0.00
2017-10-21T01:42:08.020Z,0.00
2017-10-21T01:43:08.079Z,0.00
2017-10-21T01:45:01.087Z,0.00
2017-10-21T01:46:01.126Z,0.00
2017-10-21T01:47:54.116Z,0.00
2017-10-21T01:48:54.174Z,0.00
2017-10-21T01:50:47.178Z,0.00
2017-10-21T01:51:47.217Z,0.00
2017-10-21T01:53:40.222Z,0.00
2017-10-21T01:54:40.261Z,0.00
2017-10-21T01:56:33.245Z,0.00
2017-10-21T01:57:33.306Z,0.00
2017-10-21T01:59:26.318Z,0.00
2017-10-21T02:00:26.360Z,0.00
2017-10-21T02:02:19.351Z,0.00
2017-10-21T02:03:19.409Z,0.00
2017-10-21T02:05:12.413Z,0.00
2017-10-21T02:06:12.454Z,0.00
2017-10-21T02:08:05.436Z,0.00
2017-10-21T02:09:05.498Z,0.00
2017-10-21T02:10:58.504Z,0.00
2017-10-21T02:11:58.544Z,0.00
2017-10-21T02:13:51.549Z,0.00
2017-10-21T02:14:51.589Z,0.00
2017-10-21T02:16:44.577Z,0.00
2017-10-21T02:17:44.637Z,0.00
2017-10-21T02:19:37.651Z,0.00
2017-10-21T02:20:37.678Z,0.00
2017-10-21T02:22:30.668Z,0.00
2017-10-21T02:23:30.723Z,0.00
2017-10-21T02:25:23.727Z,0.00
2017-10-21T02:26:23.766Z,0.00
2017-10-21T02:28:16.749Z,0.00
2017-10-21T02:29:16.811Z,0.00
2017-10-21T02:31:09.815Z,0.00
2017-10-21T02:32:09.855Z,0.00
2017-10-21T02:34:02.863Z,0.00
2017-10-21T02:35:02.910Z,0.00
2017-10-21T02:36:55.893Z,0.00
2017-10-21T02:37:55.948Z,0.00
2017-10-21T02:39:48.951Z,0.00
2017-10-21T02:40:48.992Z,0.00
2017-10-21T02:42:41.976Z,0.00
2017-10-21T02:43:42.036Z,0.00
2017-10-21T02:45:35.042Z,0.00
2017-10-21T02:46:35.087Z,0.00
2017-10-21T02:48:28.067Z,0.00
2017-10-21T02:49:28.129Z,0.00
2017-10-21T02:51:21.134Z,0.00
2017-10-21T02:52:21.174Z,0.00
2017-10-21T02:54:14.177Z,0.00
2017-10-21T02:55:14.218Z,0.00
2017-10-21T02:57:07.208Z,0.00
2017-10-21T02:58:07.268Z,0.00
2017-10-21T03:00:00.270Z,0.00
2017-10-21T03:01:00.310Z,0.00
2017-10-21T03:02:53.293Z,0.00
2017-10-21T03:03:53.355Z,0.00
2017-10-21T03:05:46.363Z,0.00
2017-10-21T03:06:46.401Z,0.00
2017-10-21T03:08:39.383Z,0.00
2017-10-21T03:09:39.446Z,0.00
2017-10-21T03:11:32.455Z,0.00
2017-10-21T03:12:32.495Z,0.00
2017-10-21T03:14:25.498Z,0.00
2017-10-21T03:15:25.537Z,0.00
2017-10-21T03:17:18.525Z,0.00
2017-10-21T03:18:18.583Z,0.00
2017-10-21T03:20:11.592Z,0.00
2017-10-21T03:21:11.631Z,0.00
2017-10-21T03:23:04.619Z,0.00
2017-10-21T03:24:04.677Z,0.00
2017-10-21T03:25:57.686Z,0.00
2017-10-21T03:26:57.725Z,0.00
2017-10-21T03:28:50.708Z,0.00
2017-10-21T03:29:50.769Z,0.00
2017-10-21T03:31:43.777Z,0.00
2017-10-21T03:32:43.816Z,0.00
2017-10-21T03:34:36.823Z,0.00
2017-10-21T03:35:36.864Z,0.00
2017-10-21T03:37:29.852Z,0.00
2017-10-21T03:38:29.911Z,0.00
2017-10-21T03:40:22.915Z,0.00
2017-10-21T03:41:22.956Z,0.00
2017-10-21T03:43:15.946Z,0.00
2017-10-21T03:44:16.008Z,0.00
2017-10-21T03:46:09.017Z,0.00
2017-10-21T03:47:09.053Z,0.00
2017-10-21T03:49:02.043Z,0.00
2017-10-21T03:50:02.101Z,0.00
2017-10-21T03:51:55.105Z,0.00
2017-10-21T03:52:55.145Z,0.00
2017-10-21T03:54:48.152Z,0.00
2017-10-21T03:55:48.191Z,0.00
2017-10-21T03:57:41.175Z,0.00
2017-10-21T03:58:41.237Z,0.00
2017-10-21T04:00:34.241Z,0.00
2017-10-21T04:01:34.280Z,0.00
2017-10-21T04:03:27.266Z,0.00
2017-10-21T04:04:27.326Z,0.00
2017-10-21T04:06:20.330Z,0.00
2017-10-21T04:07:20.371Z,0.00
2017-10-21T04:09:13.360Z,0.00
2017-10-21T04:10:13.417Z,0.00
2017-10-21T04:12:06.422Z,0.00
2017-10-21T04:13:06.461Z,0.00
2017-10-21T04:14:59.467Z,0.00
2017-10-21T04:15:59.506Z,0.00
2017-10-21T04:17:52.999Z,0.00
2017-10-21T04:18:53.060Z,0.00
2017-10-21T04:20:46.065Z,0.00
2017-10-21T04:21:46.105Z,0.00
2017-10-21T04:23:39.100Z,0.00
2017-10-21T04:24:39.150Z,0.00
2017-10-21T04:26:32.155Z,0.00
2017-10-21T04:27:32.195Z,0.00
2017-10-21T04:29:25.184Z,0.00
2017-10-21T04:30:25.241Z,0.00
2017-10-21T04:32:18.247Z,0.00
2017-10-21T04:33:18.286Z,0.00
2017-10-21T04:35:11.294Z,0.00
2017-10-21T04:36:11.333Z,0.00
2017-10-21T04:38:04.321Z,0.00
2017-10-21T04:39:04.384Z,0.00
2017-10-21T04:40:57.387Z,0.00
2017-10-21T04:41:57.430Z,0.00
2017-10-21T04:43:50.416Z,0.00
2017-10-21T04:44:50.477Z,0.00
2017-10-21T04:46:43.490Z,0.00
2017-10-21T04:47:43.530Z,0.00
2017-10-21T04:49:36.520Z,0.00
2017-10-21T04:50:36.577Z,0.00
2017-10-21T04:52:29.581Z,0.00
2017-10-21T04:53:29.621Z,0.00
2017-10-21T04:55:22.629Z,0.00
2017-10-21T04:56:22.666Z,0.00
2017-10-21T04:58:15.653Z,0.00
2017-10-21T04:59:15.713Z,0.00
2017-10-21T05:01:08.718Z,0.00
2017-10-21T05:02:08.758Z,0.00
2017-10-21T05:04:01.757Z,0.00
2017-10-21T05:05:01.814Z,0.00
2017-10-21T05:06:54.820Z,0.00
2017-10-21T05:07:54.861Z,0.00
2017-10-21T05:09:47.854Z,0.00
2017-10-21T05:10:47.929Z,0.00
2017-10-21T05:12:40.915Z,0.00
2017-10-21T05:13:40.954Z,0.00
2017-10-21T05:15:33.962Z,0.00
2017-10-21T05:16:34.003Z,0.00
2017-10-21T05:18:26.996Z,0.00
2017-10-21T05:19:27.048Z,0.00
2017-10-21T05:21:20.054Z,0.00
2017-10-21T05:22:20.094Z,0.00
2017-10-21T05:24:13.083Z,0.00
2017-10-21T05:25:13.141Z,0.00
2017-10-21T05:27:06.145Z,0.00
2017-10-21T05:28:06.201Z,0.00
2017-10-21T05:29:59.174Z,0.00
2017-10-21T05:30:59.231Z,0.00
2017-10-21T05:32:52.241Z,0.00
2017-10-21T05:33:52.283Z,0.00
2017-10-21T05:35:45.291Z,0.00
2017-10-21T05:36:45.329Z,0.00
2017-10-21T05:38:38.318Z,0.00
2017-10-21T05:39:38.378Z,0.00
2017-10-21T05:41:31.383Z,0.00
2017-10-21T05:42:31.420Z,0.00
2017-10-21T05:44:24.408Z,0.00
2017-10-21T05:45:24.468Z,0.00
2017-10-21T05:47:17.476Z,0.00
2017-10-21T05:48:17.511Z,0.00
2017-10-21T05:50:10.500Z,0.00
2017-10-21T05:51:10.562Z,0.00
2017-10-21T05:53:03.568Z,0.00
2017-10-21T05:54:03.609Z,0.00
2017-10-21T05:55:56.612Z,5.63
2017-10-21T05:56:56.652Z,5.63
2017-10-21T05:58:49.640Z,5.63
2017-10-21T05:59:49.697Z,5.63
2017-10-21T06:01:42.703Z,11.25
2017-10-21T06:02:42.742Z,11.25
2017-10-21T06:04:35.732Z,11.25
2017-10-21T06:05:35.800Z,11.25
2017-10-21T06:07:28.798Z,16.88
2017-10-21T06:08:28.838Z,16.88
2017-10-21T06:10:21.825Z,22.50
2017-10-21T06:11:21.888Z,22.50
2017-10-21T06:13:14.890Z,22.50
2017-10-21T06:14:14.930Z,28.13
2017-10-21T06:16:07.940Z,28.13
2017-10-21T06:17:07.978Z,28.13
2017-10-21T06:19:00.965Z,33.75
2017-10-21T06:20:01.023Z,33.75
2017-10-21T06:21:54.028Z,39.38
2017-10-21T06:22:54.071Z,45.00
2017-10-21T06:24:47.054Z,50.63
2017-10-21T06:25:47.113Z,56.25
2017-10-21T06:27:40.122Z,56.25
2017-10-21T06:28:40.162Z,56.25
2017-10-21T06:30:33.151Z,61.88
2017-10-21T06:31:33.209Z,67.50
2017-10-21T06:33:26.212Z,84.38
2017-10-21T06:34:26.257Z,90.00
2017-10-21T06:36:19.263Z,95.63
2017-10-21T06:37:19.299Z,106.88
2017-10-21T06:39:12.288Z,118.13
2017-10-21T06:40:12.345Z,118.13
2017-10-21T06:42:05.349Z,151.88
2017-10-21T06:43:05.388Z,146.25
2017-10-21T06:44:58.376Z,118.13
2017-10-21T06:45:58.436Z,118.13
2017-10-21T06:47:51.439Z,123.75
2017-10-21T06:48:51.479Z,123.75
2017-10-21T06:50:44.469Z,163.13
2017-10-21T06:51:44.526Z,168.75
2017-10-21T06:53:37.538Z,129.38
2017-10-21T06:54:37.580Z,129.38
2017-10-21T06:56:30.587Z,112.50
2017-10-21T06:57:30.627Z,95.63
2017-10-21T06:59:23.618Z,84.38
2017-10-21T07:00:23.679Z,84.38
2017-10-21T07:02:16.685Z,84.38
2017-10-21T07:03:16.725Z,78.75
2017-10-21T07:05:09.714Z,67.50
2017-10-21T07:06:09.772Z,61.88
2017-10-21T07:08:02.780Z,73.13
2017-10-21T07:09:02.822Z,90.00
2017-10-21T07:10:55.812Z,78.75
2017-10-21T07:11:55.868Z,78.75
2017-10-21T07:13:48.876Z,95.63
2017-10-21T07:14:48.914Z,90.00
2017-10-21T07:16:41.920Z,73.13
2017-10-21T07:17:41.961Z,61.88
2017-10-21T07:19:34.947Z,56.25
2017-10-21T07:20:35.008Z,56.25
2017-10-21T07:22:28.012Z,67.50
2017-10-21T07:23:28.054Z,78.75
2017-10-21T07:25:21.048Z,90.00
2017-10-21T07:26:21.106Z,84.38
2017-10-21T07:28:14.116Z,112.50
2017-10-21T07:29:14.154Z,135.00
2017-10-21T07:31:07.159Z,185.63
2017-10-21T07:32:07.221Z,191.25
2017-10-21T07:34:00.229Z,163.13
2017-10-21T07:35:00.269Z,129.38
2017-10-21T07:36:53.276Z,90.00
2017-10-21T07:37:53.320Z,84.38
2017-10-21T07:39:46.304Z,73.13
2017-10-21T07:40:46.363Z,78.75
2017-10-21T07:42:39.367Z,90.00
2017-10-21T07:43:39.407Z,101.25
2017-10-21T07:45:32.393Z,101.25
2017-10-21T07:46:32.455Z,95.63
2017-10-21T07:48:25.499Z,95.63
2017-10-21T07:49:25.499Z,101.25
2017-10-21T07:51:18.484Z,101.25
2017-10-21T07:52:18.545Z,90.00
2017-10-21T07:54:11.550Z,106.88
2017-10-21T07:55:11.590Z,123.75
2017-10-21T07:57:04.595Z,112.50
2017-10-21T07:58:04.636Z,129.38
2017-10-21T07:59:57.629Z,118.13
2017-10-21T08:00:57.690Z,151.88
2017-10-21T08:02:50.700Z,185.63
2017-10-21T08:03:50.736Z,202.50
2017-10-21T08:05:43.726Z,146.25
2017-10-21T08:06:43.786Z,123.75
2017-10-21T08:08:36.797Z,151.88
2017-10-21T08:09:36.839Z,146.25
2017-10-21T08:11:29.826Z,112.50
2017-10-21T08:12:29.885Z,106.88
2017-10-21T08:14:22.894Z,106.88
2017-10-21T08:15:22.933Z,112.50
2017-10-21T08:17:27.535Z,112.50
2017-10-21T08:18:27.575Z,106.88
2017-10-21T08:20:20.560Z,84.38
2017-10-21T08:21:20.620Z,84.38
2017-10-21T08:23:13.696Z,78.75
2017-10-21T08:24:13.674Z,78.75
2017-10-21T08:26:06.655Z,90.00
2017-10-21T08:27:06.715Z,84.38
2017-10-21T08:28:59.721Z,67.50
2017-10-21T08:29:59.761Z,61.88
2017-10-21T08:31:52.748Z,67.50
2017-10-21T08:32:52.807Z,67.50
2017-10-21T08:34:45.813Z,73.13
2017-10-21T08:35:45.855Z,84.38
2017-10-21T08:37:38.860Z,95.63
2017-10-21T08:38:38.905Z,90.00
2017-10-21T08:40:31.891Z,101.25
2017-10-21T08:41:31.955Z,95.63
2017-10-21T08:43:24.963Z,95.63
2017-10-21T08:44:24.997Z,90.00
2017-10-21T08:46:17.985Z,112.50
2017-10-21T08:47:18.041Z,123.75
2017-10-21T08:49:11.049Z,157.50
2017-10-21T08:50:11.090Z,151.88
2017-10-21T08:52:04.079Z,191.25
2017-10-21T08:53:04.140Z,196.88
2017-10-21T08:54:57.144Z,168.75
2017-10-21T08:55:57.186Z,157.50
2017-10-21T08:57:50.186Z,146.25
2017-10-21T08:58:50.229Z,140.63
2017-10-21T09:00:43.211Z,163.13
2017-10-21T09:01:43.272Z,157.50
2017-10-21T09:03:36.279Z,157.50
2017-10-21T09:04:36.327Z,146.25
2017-10-21T09:06:29.308Z,112.50
2017-10-21T09:07:29.366Z,112.50
2017-10-21T09:09:22.379Z,95.63
2017-10-21T09:10:22.421Z,84.38
2017-10-21T09:12:15.406Z,90.00
2017-10-21T09:13:15.469Z,84.38
2017-10-21T09:15:08.472Z,101.25
2017-10-21T09:16:08.514Z,101.25
2017-10-21T09:18:01.521Z,135.00
2017-10-21T09:19:01.561Z,135.00
2017-10-21T09:20:54.550Z,101.25
2017-10-21T09:21:54.613Z,112.50
2017-10-21T09:23:47.614Z,146.25
2017-10-21T09:24:47.655Z,151.88
2017-10-21T09:26:40.643Z,174.38
2017-10-21T09:27:40.700Z,168.75
2017-10-21T09:29:33.707Z,151.88
2017-10-21T09:30:33.748Z,174.38
2017-10-21T09:32:26.736Z,185.63
2017-10-21T09:33:26.793Z,202.50
2017-10-21T09:35:19.805Z,213.75
2017-10-21T09:36:19.849Z,225.00
2017-10-21T09:38:12.859Z,196.88
2017-10-21T09:39:13.934Z,185.63
2017-10-21T09:41:06.926Z,202.50
2017-10-21T09:42:06.878Z,185.63
2017-10-21T09:44:01.289Z,157.50
2017-10-21T09:44:59.242Z,163.13
2017-10-21T09:46:52.226Z,185.63
2017-10-21T09:47:52.286Z,168.75
2017-10-21T09:49:45.296Z,151.88
2017-10-21T09:50:45.338Z,157.50
2017-10-21T09:52:38.329Z,157.50
2017-10-21T09:53:38.394Z,174.38
2017-10-21T09:55:31.398Z,180.00
2017-10-21T09:56:31.439Z,174.38
2017-10-21T09:58:24.445Z,185.63
2017-10-21T09:59:24.485Z,157.50
2017-10-21T10:01:17.474Z,208.13
2017-10-21T10:02:17.531Z,208.13
2017-10-21T10:04:10.538Z,174.38
2017-10-21T10:05:10.585Z,168.75
2017-10-21T10:07:03.569Z,151.88
2017-10-21T10:08:03.650Z,163.13
2017-10-21T10:09:56.645Z,163.13
2017-10-21T10:10:56.683Z,163.13
2017-10-21T10:12:49.669Z,106.88
2017-10-21T10:13:49.728Z,90.00
2017-10-21T10:15:42.736Z,101.25
2017-10-21T10:16:42.781Z,112.50
2017-10-21T10:18:35.789Z,174.38
2017-10-21T10:19:35.828Z,174.38
2017-10-21T10:21:28.810Z,101.25
2017-10-21T10:22:28.871Z,95.63
2017-10-21T10:24:21.879Z,95.63
2017-10-21T10:25:21.918Z,90.00
2017-10-21T10:27:14.906Z,84.38
2017-10-21T10:28:14.976Z,78.75
2017-10-21T10:30:07.979Z,95.63
2017-10-21T10:31:08.014Z,101.25
2017-10-21T10:33:01.005Z,123.75
2017-10-21T10:34:01.061Z,146.25
2017-10-21T10:35:54.069Z,185.63
2017-10-21T10:36:54.110Z,219.38
2017-10-21T10:38:47.117Z,202.50
2017-10-21T10:39:47.157Z,191.25
2017-10-21T10:41:40.147Z,168.75
2017-10-21T10:42:40.203Z,168.75
2017-10-21T10:44:33.242Z,157.50
2017-10-21T10:45:33.283Z,146.25
2017-10-21T10:47:26.271Z,129.38
2017-10-21T10:48:26.335Z,151.88
2017-10-21T10:50:19.338Z,174.38
2017-10-21T10:51:19.376Z,191.25
2017-10-21T10:53:12.365Z,180.00
2017-10-21T10:54:12.422Z,180.00
2017-10-21T10:56:05.435Z,168.75
2017-10-21T10:57:05.478Z,118.13
2017-10-21T10:58:58.478Z,123.75
2017-10-21T10:59:58.520Z,174.38
2017-10-21T11:01:51.508Z,185.63
2017-10-21T11:02:51.568Z,163.13
2017-10-21T11:04:44.578Z,157.50
2017-10-21T11:05:44.621Z,174.38
2017-10-21T11:07:37.612Z,157.50
2017-10-21T11:08:37.687Z,180.00
2017-10-21T11:10:30.684Z,202.50
2017-10-21T11:11:30.725Z,196.88
2017-10-21T11:13:23.716Z,202.50
2017-10-21T11:14:23.776Z,185.63
2017-10-21T11:16:16.781Z,163.13
2017-10-21T11:17:16.823Z,180.00
2017-10-21T11:19:09.832Z,157.50
2017-10-21T11:20:09.874Z,135.00
2017-10-21T11:22:02.863Z,112.50
2017-10-21T11:23:03.044Z,135.00
2017-10-21T11:24:55.933Z,174.38
2017-10-21T11:25:55.972Z,168.75
2017-10-21T11:27:48.963Z,202.50
2017-10-21T11:28:49.115Z,230.63
2017-10-21T11:30:42.114Z,348.75
2017-10-21T11:31:42.152Z,230.63
2017-10-21T11:33:35.144Z,168.75
2017-10-21T11:34:35.200Z,168.75
2017-10-21T11:36:28.234Z,230.63
2017-10-21T11:37:28.454Z,202.50
2017-10-21T11:39:21.299Z,174.38
2017-10-21T11:40:21.328Z,146.25
2017-10-21T11:42:14.312Z,225.00
2017-10-21T11:43:14.373Z,225.00
2017-10-21T11:45:07.395Z,230.63
2017-10-21T11:46:07.429Z,225.00
2017-10-21T11:48:00.423Z,258.75
2017-10-21T11:49:00.487Z,219.38
2017-10-21T11:50:53.538Z,281.25
2017-10-21T11:51:53.560Z,337.50
2017-10-21T11:53:47.047Z,472.50
2017-10-21T11:54:47.105Z,433.13
2017-10-21T11:56:40.115Z,343.13
2017-10-21T11:57:40.156Z,360.00
2017-10-21T11:59:33.161Z,331.88
2017-10-21T12:00:33.202Z,309.38
2017-10-21T12:02:26.197Z,416.25
2017-10-21T12:03:26.256Z,461.25
2017-10-21T12:05:19.268Z,455.63
2017-10-21T12:06:19.308Z,421.88
2017-10-21T12:08:12.301Z,354.38
2017-10-21T12:09:12.360Z,365.63
2017-10-21T12:11:05.368Z,466.88
2017-10-21T12:12:05.409Z,433.13
2017-10-21T12:13:58.402Z,343.13
2017-10-21T12:14:58.463Z,303.75
2017-10-21T12:16:51.471Z,326.25
2017-10-21T12:17:51.512Z,309.38
2017-10-21T12:19:44.521Z,315.00
2017-10-21T12:20:44.563Z,337.50
2017-10-21T12:22:37.552Z,399.38
2017-10-21T12:23:37.617Z,376.88
2017-10-21T12:25:30.625Z,371.25
2017-10-21T12:26:30.667Z,360.00
2017-10-21T12:28:23.658Z,421.88
2017-10-21T12:29:23.718Z,444.38
2017-10-21T12:31:16.727Z,472.50
2017-10-21T12:32:16.827Z,511.88
2017-10-21T12:34:09.776Z,405.00
2017-10-21T12:35:09.833Z,405.00
2017-10-21T12:37:02.843Z,371.25
2017-10-21T12:38:02.884Z,376.88
2017-10-21T12:39:55.894Z,371.25
2017-10-21T12:40:55.936Z,405.00
2017-10-21T12:42:48.928Z,410.63
2017-10-21T12:43:48.987Z,405.00
2017-10-21T12:45:41.998Z,376.88
2017-10-21T12:46:42.046Z,382.50
2017-10-21T12:48:35.032Z,495.00
2017-10-21T12:49:35.094Z,511.88
2017-10-21T12:51:28.107Z,528.75
2017-10-21T12:52:28.149Z,596.25
2017-10-21T12:54:21.653Z,495.00
2017-10-21T12:55:21.716Z,478.13
2017-10-21T12:57:14.726Z,371.25
2017-10-21T12:58:14.769Z,348.75
2017-10-21T13:00:07.783Z,405.00
2017-10-21T13:01:07.833Z,388.13
2017-10-21T13:03:00.814Z,365.63
2017-10-21T13:04:00.874Z,241.88
2017-10-21T13:05:53.884Z,331.88
2017-10-21T13:06:53.928Z,444.38
2017-10-21T13:08:46.921Z,382.50
2017-10-21T13:09:46.982Z,320.63
2017-10-21T13:11:39.992Z,354.38
2017-10-21T13:12:40.038Z,326.25
2017-10-21T13:14:33.028Z,281.25
2017-10-21T13:15:33.089Z,264.38
2017-10-21T13:17:26.100Z,264.38
2017-10-21T13:18:26.143Z,292.50
2017-10-21T13:20:19.154Z,309.38
2017-10-21T13:21:19.197Z,292.50
2017-10-21T13:23:12.190Z,191.25
2017-10-21T13:24:12.258Z,174.38
2017-10-21T13:26:05.262Z,230.63
2017-10-21T13:27:05.303Z,281.25
2017-10-21T13:28:58.297Z,196.88
2017-10-21T13:29:58.363Z,196.88
2017-10-21T13:31:51.383Z,208.13
2017-10-21T13:32:51.427Z,236.25
2017-10-21T13:34:44.418Z,360.00
2017-10-21T13:35:44.478Z,343.13
2017-10-21T13:37:37.493Z,331.88
2017-10-21T13:38:37.534Z,292.50
2017-10-21T13:40:30.544Z,196.88
2017-10-21T13:41:30.589Z,157.50
2017-10-21T13:43:23.580Z,202.50
2017-10-21T13:44:23.643Z,253.13
2017-10-21T13:46:16.653Z,292.50
2017-10-21T13:47:16.695Z,258.75
2017-10-21T13:49:09.684Z,196.88
2017-10-21T13:50:09.747Z,180.00
2017-10-21T13:52:02.760Z,202.50
2017-10-21T13:53:02.805Z,225.00
2017-10-21T13:54:55.795Z,286.88
2017-10-21T13:55:55.855Z,247.50
2017-10-21T13:57:48.866Z,168.75
2017-10-21T13:58:48.909Z,196.88
2017-10-21T14:00:41.918Z,320.63
2017-10-21T14:01:41.961Z,371.25
2017-10-21T14:03:34.953Z,388.13
2017-10-21T14:04:35.017Z,365.63
2017-10-21T14:06:28.023Z,225.00
2017-10-21T14:07:28.066Z,208.13
2017-10-21T14:09:21.057Z,236.25
2017-10-21T14:10:21.125Z,241.88
2017-10-21T14:12:14.131Z,202.50
2017-10-21T14:13:14.173Z,298.13
2017-10-21T14:15:07.193Z,264.38
2017-10-21T14:16:07.226Z,230.63
2017-10-21T14:18:00.746Z,202.50
2017-10-21T14:19:00.788Z,196.88
2017-10-21T14:20:53.798Z,270.00
2017-10-21T14:21:53.840Z,219.38
2017-10-21T14:23:46.837Z,247.50
2017-10-21T14:24:46.903Z,315.00
2017-10-21T14:26:39.918Z,247.50
2017-10-21T14:27:39.962Z,213.75
2017-10-21T14:29:32.951Z,151.88
2017-10-21T14:30:33.016Z,123.75
2017-10-21T14:32:26.535Z,106.88
2017-10-21T14:33:26.575Z,106.88
2017-10-21T14:35:19.565Z,90.00
2017-10-21T14:36:19.627Z,112.50
2017-10-21T14:38:12.731Z,84.38
2017-10-21T14:39:12.681Z,84.38
2017-10-21T14:41:05.698Z,112.50
2017-10-21T14:42:05.741Z,90.00
2017-10-21T14:43:58.743Z,73.13
2017-10-21T14:44:58.798Z,73.13
2017-10-21T14:46:51.810Z,50.63
2017-10-21T14:47:51.856Z,56.25
2017-10-21T14:49:44.845Z,112.50
2017-10-21T14:50:44.908Z,95.63
2017-10-21T14:52:37.917Z,168.75
2017-10-21T14:53:37.961Z,191.25
2017-10-21T14:55:30.949Z,146.25
2017-10-21T14:56:31.012Z,135.00
2017-10-21T14:58:24.045Z,112.50
2017-10-21T14:59:24.168Z,112.50
2017-10-21T15:01:17.099Z,185.63
2017-10-21T15:02:17.142Z,185.63
2017-10-21T15:04:10.133Z,168.75
2017-10-21T15:05:10.204Z,151.88
2017-10-21T15:07:03.213Z,140.63
2017-10-21T15:08:03.257Z,123.75
2017-10-21T15:09:56.250Z,118.13
2017-10-21T15:10:56.311Z,112.50
2017-10-21T15:12:49.327Z,95.63
2017-10-21T15:13:49.368Z,95.63
2017-10-21T15:15:42.361Z,112.50
2017-10-21T15:16:42.431Z,118.13
2017-10-21T15:18:35.601Z,112.50
2017-10-21T15:19:35.478Z,101.25
2017-10-21T15:21:28.488Z,84.38
2017-10-21T15:22:28.531Z,95.63
2017-10-21T15:24:21.523Z,84.38
2017-10-21T15:25:21.587Z,78.75
2017-10-21T15:27:14.601Z,61.88
2017-10-21T15:28:14.642Z,61.88
2017-10-21T15:30:07.640Z,78.75
2017-10-21T15:31:07.696Z,78.75
2017-10-21T15:33:01.251Z,84.38
2017-10-21T15:34:01.258Z,90.00
2017-10-21T15:35:54.247Z,67.50
2017-10-21T15:36:54.309Z,56.25
2017-10-21T15:38:47.337Z,61.88
2017-10-21T15:39:47.421Z,67.50
2017-10-21T15:41:40.382Z,73.13
2017-10-21T15:42:40.422Z,67.50
2017-10-21T15:44:33.427Z,73.13
2017-10-21T15:45:33.491Z,73.13
2017-10-21T15:47:26.510Z,61.88
2017-10-21T15:48:26.555Z,61.88
2017-10-21T15:50:19.553Z,61.88
2017-10-21T15:51:19.644Z,56.25
2017-10-21T15:53:12.661Z,50.63
2017-10-21T15:54:12.682Z,50.63
2017-10-21T15:56:05.681Z,50.63
2017-10-21T15:57:05.742Z,45.00
2017-10-21T15:58:59.288Z,50.63
2017-10-21T15:59:59.353Z,50.63
2017-10-21T16:01:52.314Z,50.63
2017-10-21T16:02:52.354Z,50.63
2017-10-21T16:04:45.411Z,45.00
2017-10-21T16:05:45.544Z,39.38
2017-10-21T16:07:38.483Z,39.38
2017-10-21T16:08:38.517Z,33.75
2017-10-21T16:10:31.495Z,28.13
2017-10-21T16:11:31.601Z,22.50
2017-10-21T16:13:24.591Z,22.50
2017-10-21T16:14:24.622Z,16.88
2017-10-21T16:16:17.624Z,16.88
2017-10-21T16:17:17.674Z,16.88
2017-10-21T16:19:10.686Z,11.25
2017-10-21T16:20:10.730Z,11.25
2017-10-21T16:22:03.749Z,11.25
2017-10-21T16:23:03.790Z,5.63
2017-10-21T16:24:56.805Z,5.63
2017-10-21T16:25:56.869Z,5.63
2017-10-21T16:27:49.906Z,5.63
2017-10-21T16:28:49.931Z,5.63
2017-10-21T16:30:42.908Z,0.00
2017-10-21T16:31:42.990Z,0.00
2017-10-21T16:33:36.000Z,0.00
2017-10-21T16:34:36.053Z,0.00
2017-10-21T16:36:29.014Z,0.00
2017-10-21T16:37:29.085Z,0.00
2017-10-21T16:39:22.115Z,0.00
2017-10-21T16:40:22.181Z,0.00
2017-10-21T16:42:15.156Z,0.00
2017-10-21T16:43:15.195Z,0.00
2017-10-21T16:45:08.189Z,0.00
2017-10-21T16:46:08.249Z,0.00
2017-10-21T16:48:01.262Z,0.00
2017-10-21T16:49:01.304Z,0.00
2017-10-21T16:50:54.296Z,0.00
2017-10-21T16:51:54.360Z,0.00
2017-10-21T16:53:47.377Z,0.00
2017-10-21T16:54:47.418Z,0.00
2017-10-21T16:56:40.430Z,0.00
2017-10-21T16:57:40.470Z,0.00
2017-10-21T16:59:34.000Z,0.00
2017-10-21T17:00:34.028Z,0.00
2017-10-21T17:02:27.035Z,0.00
2017-10-21T17:03:27.082Z,0.00
2017-10-21T17:05:20.075Z,0.00
2017-10-21T17:06:20.139Z,0.00
2017-10-21T17:08:13.156Z,0.00
2017-10-21T17:09:13.197Z,0.00
2017-10-21T17:11:06.188Z,0.00
2017-10-21T17:12:06.251Z,0.00
2017-10-21T17:13:59.768Z,0.00
2017-10-21T17:14:59.809Z,0.00
2017-10-21T17:16:52.798Z,0.00
2017-10-21T17:17:52.859Z,0.00
2017-10-21T17:19:45.875Z,0.00
2017-10-21T17:20:45.909Z,0.00
2017-10-21T17:22:38.917Z,0.00
2017-10-21T17:23:38.963Z,0.00
2017-10-21T17:25:31.949Z,0.00
2017-10-21T17:26:32.006Z,0.00
2017-10-21T17:28:25.014Z,0.00
2017-10-21T17:29:25.055Z,0.00
2017-10-21T17:31:18.043Z,0.00
2017-10-21T17:32:18.106Z,0.00
2017-10-21T17:34:11.111Z,0.00
2017-10-21T17:35:11.152Z,0.00
2017-10-21T17:37:04.139Z,0.00
2017-10-21T17:38:04.202Z,0.00
2017-10-21T17:39:57.236Z,0.00
2017-10-21T17:40:57.254Z,0.00
2017-10-21T17:42:50.281Z,0.00
2017-10-21T17:43:50.321Z,0.00
2017-10-21T17:45:43.331Z,0.00
2017-10-21T17:46:43.370Z,0.00
2017-10-21T17:48:36.378Z,0.00
2017-10-21T17:49:36.419Z,0.00
2017-10-21T17:51:29.416Z,0.00
2017-10-21T17:52:29.470Z,0.00
2017-10-21T17:54:22.526Z,0.00
2017-10-21T17:55:22.522Z,0.00
2017-10-21T17:57:15.509Z,0.00
2017-10-21T17:58:15.572Z,0.00
2017-10-21T18:00:08.578Z,0.00
2017-10-21T18:01:08.621Z,0.00
2017-10-21T18:03:01.628Z,0.00
2017-10-21T18:04:01.673Z,0.00
2017-10-21T18:05:54.684Z,0.00
2017-10-21T18:06:54.738Z,0.00
2017-10-21T18:08:47.749Z,0.00
2017-10-21T18:09:47.789Z,0.00
2017-10-21T18:11:40.779Z,0.00
2017-10-21T18:12:40.838Z,0.00
2017-10-21T18:14:33.849Z,0.00
2017-10-21T18:15:33.886Z,0.00
2017-10-21T18:17:26.873Z,0.00
2017-10-21T18:18:26.940Z,0.00
2017-10-21T18:20:19.952Z,0.00
2017-10-21T18:21:19.983Z,0.00
2017-10-21T18:23:12.989Z,0.00
2017-10-21T18:24:13.030Z,0.00
2017-10-21T18:26:06.048Z,0.00
2017-10-21T18:27:06.080Z,0.00
2017-10-21T18:28:59.087Z,0.00
2017-10-21T18:29:59.127Z,0.00
2017-10-21T18:31:52.117Z,0.00
2017-10-21T18:32:52.177Z,0.00
2017-10-21T18:34:45.193Z,0.00
2017-10-21T18:35:45.241Z,0.00
2017-10-21T18:37:38.213Z,0.00